Time;durP1;ratioP1;P1;durP2;ratioP2;P2;SDS_P1;SDS_P2;PMS_P1;PMS_P2;Temp;Humidity;BMP_temperature;BMP_pressure;BME280_temperature;BME280_humidity;BME280_pressure;Samples;Min_cycle;Max_cycle;Signal;HPM_P1;HPM_P2
2021/09/14 00:01:09;;;;;;;4.57;3.08;;;;;;;17.78;nan;100239.34;4998700;28;20034;-78
2021/09/14 00:03:35;;;;;;;4.72;3.10;;;;;;;;;;4997736;28;20107;-78
2021/09/14 00:06:00;;;;;;;5.03;3.20;;;;;;;;;;4997756;28;20514;-78
2021/09/14 00:08:25;;;;;;;4.43;2.80;;;;;;;17.78;nan;100242.03;4979543;28;20062;-78
2021/09/14 00:10:51;;;;;;;4.20;2.70;;;;;;;17.73;nan;100239.16;4979835;28;20100;-78
2021/09/14 00:13:17;;;;;;;4.25;2.90;;;;;;;17.70;nan;100196.78;4995510;28;20060;-78
2021/09/14 00:15:42;;;;;;;4.00;2.95;;;;;;;17.68;nan;100295.09;4997751;28;20145;-77
2021/09/14 00:18:07;;;;;;;3.67;2.78;;;;;;;17.68;nan;100247.78;4997841;28;20038;-78
2021/09/14 00:20:33;;;;;;;3.80;2.78;;;;;;;17.71;nan;100219.81;4999317;28;20038;-78
2021/09/14 00:22:58;;;;;;;3.33;2.80;;;;;;;;;;4998369;28;20126;-78
2021/09/14 00:25:23;;;;;;;4.65;3.17;;;;;;;17.74;nan;100220.25;4998482;28;20047;-78
2021/09/14 00:27:49;;;;;;;4.00;2.80;;;;;;;17.74;nan;100236.28;4997587;28;20041;-78
2021/09/14 00:30:14;;;;;;;4.18;2.70;;;;;;;;;;4997850;28;20122;-78
2021/09/14 00:32:40;;;;;;;3.40;2.50;;;;;;;17.73;nan;100213.25;4999064;28;20039;-77
2021/09/14 00:35:06;;;;;;;4.25;2.78;;;;;;;17.74;nan;100209.53;4998396;28;20034;-78
2021/09/14 00:37:31;;;;;;;4.20;2.88;;;;;;;;;;4997140;28;20030;-78
2021/09/14 00:39:57;;;;;;;5.53;2.75;;;;;;;;;;4992843;28;20053;-77
2021/09/14 00:42:22;;;;;;;3.90;2.83;;;;;;;17.82;nan;100169.22;4997770;28;20042;-77
2021/09/14 00:44:48;;;;;;;5.65;2.90;;;;;;;;;;4986295;28;20058;-78
2021/09/14 00:47:13;;;;;;;2.92;2.42;;;;;;;17.85;nan;100184.03;4995644;28;20034;-77
2021/09/14 00:49:38;;;;;;;3.50;2.65;;;;;;;;;;4997110;28;20030;-78
2021/09/14 00:52:04;;;;;;;4.13;2.93;;;;;;;;;;4996697;28;20125;-78
2021/09/14 00:54:30;;;;;;;3.58;2.75;;;;;;;;;;4997529;28;20141;-77
2021/09/14 00:56:57;;;;;;;3.50;2.67;;;;;;;17.65;nan;100162.66;4984751;28;20044;-78
2021/09/14 00:59:23;;;;;;;5.65;2.90;;;;;;;17.69;nan;100163.88;4996309;28;20124;-78
2021/09/14 01:01:48;;;;;;;3.47;2.65;;;;;;;17.61;nan;100188.13;4997163;28;20030;-77
2021/09/14 03:12:57;;;;;;;6.32;5.43;;;;;;;;;;4993731;28;20045;-78
2021/09/14 03:15:23;;;;;;;8.15;5.68;;;;;;;;;;4988517;28;20046;-78
2021/09/14 03:17:48;;;;;;;7.17;5.53;;;;;;;;;;4978173;28;20089;-78
2021/09/14 03:20:13;;;;;;;6.47;5.20;;;;;;;;;;4995132;28;20371;-78
2021/09/14 03:22:38;;;;;;;5.97;4.93;;;;;;;;;;4990471;28;20118;-78
2021/09/14 03:25:05;;;;;;;6.40;5.40;;;;;;;14.61;nan;100157.06;4987973;28;20107;-78
2021/09/14 03:27:30;;;;;;;7.05;5.65;;;;;;;14.56;nan;100145.31;4995306;28;20290;-77
2021/09/14 03:29:55;;;;;;;6.13;5.15;;;;;;;;;;4995331;28;20057;-78
2021/09/14 03:32:21;;;;;;;6.30;5.60;;;;;;;14.50;nan;100138.88;4975586;28;20101;-78
2021/09/14 03:34:46;;;;;;;5.97;5.13;;;;;;;;;;4974024;28;20066;-77
2021/09/14 03:37:11;;;;;;;6.53;5.28;;;;;;;14.43;nan;100161.94;4995065;28;20045;-77
2021/09/14 03:39:36;;;;;;;6.63;5.07;;;;;;;;;;4993071;28;20368;-78
2021/09/14 03:42:02;;;;;;;6.47;5.23;;;;;;;14.39;nan;100150.00;4978497;28;20042;-77
2021/09/14 03:44:27;;;;;;;7.38;5.55;;;;;;;;;;4995010;28;20418;-78
2021/09/14 03:46:52;;;;;;;7.23;5.00;;;;;;;;;;4996551;28;20054;-77
2021/09/14 03:49:17;;;;;;;6.87;5.23;;;;;;;;;;4995924;28;20273;-77
2021/09/14 03:51:42;;;;;;;6.57;5.23;;;;;;;;;;4995845;28;20050;-77
2021/09/14 03:54:08;;;;;;;6.83;5.60;;;;;;;;;;4978964;28;20088;-77
2021/09/14 03:56:33;;;;;;;6.83;6.07;;;;;;;;;;4996979;28;20102;-77
2021/09/14 03:58:58;;;;;;;7.20;5.73;;;;;;;14.15;nan;100145.81;4977161;28;20115;-77
2021/09/14 04:01:23;;;;;;;8.57;6.28;;;;;;;;;;4995732;28;20314;-77
2021/09/14 04:04:04;;;;;;;8.13;6.13;;;;;;;;;;4995712;28;20034;-78
2021/09/14 04:06:54;;;;;;;7.60;6.13;;;;;;;;;;4993239;28;20027;-78
2021/09/14 04:09:19;;;;;;;8.90;6.55;;;;;;;;;;4992248;28;20030;-78
2021/09/14 04:11:47;;;;;;;6.97;6.27;;;;;;;14.05;nan;100148.75;4993508;28;20523;-78
2021/09/14 04:14:12;;;;;;;7.00;6.30;;;;;;;;;;4991465;28;20500;-78
2021/09/14 04:16:38;;;;;;;7.00;5.57;;;;;;;14.21;nan;100143.25;4993933;28;20042;-77
2021/09/14 04:19:03;;;;;;;6.60;5.63;;;;;;;;;;4993285;28;20035;-77
2021/09/14 04:21:28;;;;;;;7.33;5.80;;;;;;;14.22;nan;100149.38;4990657;28;20046;-77
2021/09/14 04:23:53;;;;;;;7.40;6.03;;;;;;;;;;4972714;28;20041;-77
2021/09/14 04:26:18;;;;;;;7.53;6.30;;;;;;;;;;4993002;28;20031;-77
2021/09/14 04:28:44;;;;;;;7.20;6.20;;;;;;;14.03;nan;100124.19;4975077;28;20043;-77
2021/09/14 04:31:09;;;;;;;8.75;6.45;;;;;;;;;;4976134;28;20050;-77
2021/09/14 04:33:35;;;;;;;8.05;6.32;;;;;;;13.91;nan;100174.31;4992676;28;20034;-77
2021/09/14 04:36:00;;;;;;;8.85;6.55;;;;;;;;;;4976094;28;20044;-77
2021/09/14 04:38:25;;;;;;;7.10;6.17;;;;;;;;;;4975062;28;20062;-77
2021/09/14 04:40:52;;;;;;;7.68;6.30;;;;;;;-145.28;nan;120368.31;4976642;28;20352;-77
2021/09/14 04:43:17;;;;;;;8.18;6.40;;;;;;;;;;4997332;28;20030;-77
2021/09/14 04:45:42;;;;;;;7.27;6.20;;;;;;;;;;4996139;28;20085;-78
2021/09/14 04:48:10;;;;;;;7.60;6.57;;;;;;;;;;4995577;28;20313;-77
2021/09/14 04:50:35;;;;;;;7.10;6.00;;;;;;;;;;4993942;28;20034;-78
2021/09/14 04:53:02;;;;;;;7.35;6.55;;;;;;;;;;4996720;28;20388;-78
2021/09/14 04:55:27;;;;;;;7.78;6.93;;;;;;;;;;4978491;28;20069;-77
2021/09/14 04:57:52;;;;;;;9.07;6.80;;;;;;;;;;4995706;28;20042;-78
2021/09/14 05:00:18;;;;;;;7.63;6.10;;;;;;;13.74;nan;100120.50;4995038;28;20129;-78
2021/09/14 05:02:43;;;;;;;7.55;6.75;;;;;;;;;;4996125;28;20040;-78
2021/09/14 05:05:09;;;;;;;7.73;6.87;;;;;;;;;;4995714;28;20038;-78
2021/09/14 05:07:34;;;;;;;8.75;6.90;;;;;;;;;;4995438;28;20053;-77
2021/09/14 05:10:00;;;;;;;8.30;7.03;;;;;;;;;;4995965;28;20049;-77
2021/09/14 05:12:25;;;;;;;8.93;7.28;;;;;;;;;;4995059;28;20344;-77
2021/09/14 05:14:50;;;;;;;8.57;6.87;;;;;;;;;;4973758;28;20039;-77
2021/09/14 05:17:15;;;;;;;8.70;7.20;;;;;;;;;;4995717;28;20286;-77
2021/09/14 05:19:42;;;;;;;8.10;6.47;;;;;;;;;;4978926;28;20491;-77
2021/09/14 05:22:07;;;;;;;7.93;6.88;;;;;;;;;;4994454;28;20378;-78
2021/09/14 05:24:33;;;;;;;9.73;6.60;;;;;;;;;;4995947;28;20062;-77
2021/09/14 05:26:59;;;;;;;7.63;6.40;;;;;;;13.94;nan;100135.91;4997170;28;20300;-78
2021/09/14 05:29:24;;;;;;;8.25;7.03;;;;;;;;;;4979175;28;20023;-77
2021/09/14 05:31:52;;;;;;;8.68;7.18;;;;;;;14.02;nan;100149.13;4996140;28;20046;-78
2021/09/14 05:34:17;;;;;;;8.00;6.95;;;;;;;;;;4973444;28;20466;-78
2021/09/14 05:36:43;;;;;;;7.75;6.78;;;;;;;;;;4979260;28;20030;-77
2021/09/14 05:39:08;;;;;;;8.10;6.85;;;;;;;14.14;nan;100152.97;4994074;28;20129;-78
2021/09/14 05:41:33;;;;;;;9.52;7.22;;;;;;;;;;4994708;28;20034;-77
2021/09/14 05:43:59;;;;;;;7.53;6.45;;;;;;;14.32;nan;100149.91;4993603;28;20110;-78
2021/09/14 05:46:25;;;;;;;9.05;7.38;;;;;;;;;;4993889;28;20121;-77
2021/09/14 05:48:51;;;;;;;8.88;7.40;;;;;;;;;;4996327;28;20034;-78
2021/09/14 05:51:16;;;;;;;7.47;6.15;;;;;;;;;;4993983;28;20121;-78
2021/09/14 05:53:41;;;;;;;9.77;6.82;;;;;;;;;;4993025;28;20546;-77
2021/09/14 05:56:06;;;;;;;6.60;5.60;;;;;;;;;;4995029;28;20042;-78
2021/09/14 05:58:31;;;;;;;7.03;5.63;;;;;;;15.76;nan;100162.47;4995900;28;20049;-78
2021/09/14 06:00:57;;;;;;;8.10;6.57;;;;;;;16.35;nan;100167.28;4998192;28;20034;-77
2021/09/14 06:03:23;;;;;;;9.23;6.30;;;;;;;16.89;nan;100269.81;4998205;28;20109;-78
2021/09/14 06:05:48;;;;;;;8.00;5.65;;;;;;;17.30;nan;100175.38;4997391;28;20041;-78
2021/09/14 06:08:13;;;;;;;7.55;6.30;;;;;;;17.77;nan;100181.56;4996807;28;20058;-77
2021/09/14 06:10:39;;;;;;;6.43;5.13;;;;;;;18.01;nan;100207.69;4998935;28;20046;-78
2021/09/14 06:13:04;;;;;;;5.97;4.70;;;;;;;18.04;nan;100204.59;4998485;28;20499;-77
2021/09/14 06:15:29;;;;;;;7.25;5.25;;;;;;;;;;4993714;28;20093;-78
2021/09/14 06:17:55;;;;;;;6.53;5.17;;;;;;;;;;4974983;28;20039;-77
2021/09/14 06:20:20;;;;;;;6.20;5.17;;;;;;;;;;4996738;28;21222;-78
2021/09/14 06:22:45;;;;;;;5.10;4.27;;;;;;;18.58;nan;100215.97;4990198;28;20339;-78
2021/09/14 06:25:10;;;;;;;6.32;4.97;;;;;;;;;;4980761;28;20031;-78
2021/09/14 06:27:36;;;;;;;5.37;4.33;;;;;;;19.23;nan;100335.69;4997942;28;20045;-78
2021/09/14 06:30:01;;;;;;;5.38;4.25;;;;;;;19.79;nan;100245.63;4980828;28;20356;-77
2021/09/14 06:32:27;;;;;;;6.13;4.13;;;;;;;;;;4996170;28;20030;-78
2021/09/14 06:34:52;;;;;;;5.57;3.93;;;;;;;20.70;nan;100238.72;4997205;28;20048;-78
2021/09/14 06:37:17;;;;;;;8.63;3.92;;;;;;;21.08;nan;100251.88;4997963;28;20113;-78
2021/09/14 06:39:43;;;;;;;7.68;4.93;;;;;;;21.43;nan;100280.81;4993250;28;20069;-79
2021/09/14 06:42:08;;;;;;;11.27;5.45;;;;;;;;;;4990182;28;20038;-78
2021/09/14 06:44:33;;;;;;;8.93;5.93;;;;;;;;;;4979827;28;20049;-77
2021/09/14 06:46:59;;;;;;;10.40;5.80;;;;;;;22.27;nan;100284.22;4995894;28;20798;-78
2021/09/14 06:49:26;;;;;;;6.13;4.70;;;;;;;22.35;nan;100234.53;4992870;28;20060;-78
2021/09/14 06:51:53;;;;;;;5.57;4.30;;;;;;;22.34;nan;100250.97;4988024;28;20038;-77
2021/09/14 06:54:18;;;;;;;5.65;4.20;;;;;;;22.55;nan;100266.50;4975741;28;20073;-76
2021/09/14 06:56:44;;;;;;;4.70;4.00;;;;;;;22.92;nan;100276.13;4971836;28;20030;-77
2021/09/14 06:59:09;;;;;;;5.88;4.10;;;;;;;23.08;nan;100256.53;4972237;28;20077;-76
2021/09/14 07:01:34;;;;;;;7.32;4.55;;;;;;;;;;4978754;28;20085;-76
2021/09/14 07:03:59;;;;;;;4.83;4.10;;;;;;;;;;4985378;28;20244;-77
2021/09/14 07:06:25;;;;;;;6.03;3.77;;;;;;;23.80;nan;100245.09;4987450;28;20278;-76
2021/09/14 07:08:50;;;;;;;8.00;4.88;;;;;;;24.00;nan;100287.00;4989733;28;20042;-76
2021/09/14 07:11:15;;;;;;;5.57;4.50;;;;;;;;;;4972136;28;20026;-77
2021/09/14 07:13:42;;;;;;;5.13;4.13;;;;;;;24.18;nan;100273.22;4990121;28;20035;-76
2021/09/14 07:16:07;;;;;;;4.97;3.90;;;;;;;23.80;nan;100282.91;4985266;28;20070;-76
2021/09/14 07:18:32;;;;;;;5.43;4.10;;;;;;;;;;4983848;28;20058;-76
2021/09/14 07:20:58;;;;;;;5.07;3.70;;;;;;;;;;4982841;28;20031;-77
2021/09/14 07:23:23;;;;;;;3.45;2.65;;;;;;;24.41;nan;100271.38;4953310;28;20039;-77
2021/09/14 07:25:49;;;;;;;4.55;3.00;;;;;;;24.84;nan;100294.13;4970441;28;20035;-77
2021/09/14 07:28:15;;;;;;;8.13;4.70;;;;;;;24.99;nan;100275.38;4969829;28;20031;-77
2021/09/14 07:30:42;;;;;;;4.85;3.33;;;;;;;;;;4983576;28;20036;-76
2021/09/14 07:33:07;;;;;;;5.20;3.45;;;;;;;;;;4989259;28;20484;-77
2021/09/14 07:35:33;;;;;;;4.90;3.88;;;;;;;;;;4954686;28;20204;-77
2021/09/14 07:37:58;;;;;;;4.63;4.00;;;;;;;24.60;nan;100302.50;4989594;28;20263;-76
2021/09/14 07:40:24;;;;;;;5.57;4.47;;;;;;;24.50;nan;100329.38;4989050;28;20494;-76
2021/09/14 07:42:50;;;;;;;6.25;4.65;;;;;;;24.73;nan;100312.13;4989071;28;20053;-76
2021/09/14 07:45:15;;;;;;;6.65;5.13;;;;;;;;;;4989207;28;20034;-76
2021/09/14 07:47:40;;;;;;;8.97;5.10;;;;;;;24.82;nan;100344.97;4986150;28;20451;-76
2021/09/14 07:50:06;;;;;;;7.07;5.03;;;;;;;;;;4989127;28;20301;-77
2021/09/14 07:52:31;;;;;;;5.68;4.78;;;;;;;;;;4989677;28;20088;-76
2021/09/14 07:54:57;;;;;;;6.32;4.53;;;;;;;24.82;nan;100305.22;4989940;28;20042;-77
2021/09/14 07:57:22;;;;;;;6.68;4.70;;;;;;;;;;4988906;28;20035;-77
2021/09/14 07:59:47;;;;;;;6.47;4.57;;;;;;;25.48;nan;100252.88;4989779;28;20043;-77
2021/09/14 08:02:12;;;;;;;6.60;3.72;;;;;;;26.01;nan;100299.94;4988671;28;20794;-77
2021/09/14 08:04:38;;;;;;;5.30;4.15;;;;;;;26.44;nan;100309.72;4976729;28;20495;-76
2021/09/14 08:07:03;;;;;;;7.28;5.30;;;;;;;;;;4978191;28;20133;-77
2021/09/14 08:09:29;;;;;;;5.97;4.50;;;;;;;26.94;nan;100255.16;4989676;28;20035;-77
2021/09/14 08:11:55;;;;;;;5.38;4.05;;;;;;;26.70;nan;100323.44;4989897;28;20278;-76
2021/09/14 08:14:21;;;;;;;5.63;4.22;;;;;;;26.66;nan;100317.72;4988647;28;20034;-76
2021/09/14 08:16:46;;;;;;;6.05;4.97;;;;;;;;;;4990587;28;20038;-77
2021/09/14 08:19:11;;;;;;;8.38;6.07;;;;;;;27.01;nan;100318.16;4975590;28;20225;-77
2021/09/14 08:21:37;;;;;;;6.22;5.35;;;;;;;;;;4993363;28;20125;-77
2021/09/14 08:24:06;;;;;;;7.20;4.90;;;;;;;27.29;nan;100309.56;4993288;28;20035;-77
2021/09/14 08:26:31;;;;;;;6.38;4.30;;;;;;;27.70;nan;100353.09;4989755;28;20444;-77
2021/09/14 08:28:57;;;;;;;8.52;4.90;;;;;;;28.14;nan;100313.69;4956454;28;20029;-77
2021/09/14 08:31:22;;;;;;;6.40;5.20;;;;;;;28.59;nan;100277.44;4991454;28;20149;-77
2021/09/14 08:33:47;;;;;;;7.13;5.28;;;;;;;28.61;nan;100328.84;4987163;28;20531;-77
2021/09/14 08:36:13;;;;;;;5.18;3.88;;;;;;;28.89;nan;100378.28;4989195;28;20129;-74
2021/09/14 08:38:38;;;;;;;8.07;4.75;;;;;;;;;;4993150;28;20487;-74
2021/09/14 08:41:05;;;;;;;8.98;6.78;;;;;;;29.87;nan;100326.81;4992927;28;20046;-74
2021/09/14 08:43:30;;;;;;;10.60;6.60;;;;;;;30.21;nan;100329.53;4992971;28;20500;-74
2021/09/14 08:45:56;;;;;;;9.25;7.00;;;;;;;30.39;nan;100334.28;4992945;28;20261;-74
2021/09/14 08:48:22;;;;;;;6.88;5.80;;;;;;;30.21;nan;100332.25;4989358;28;20063;-74
2021/09/14 08:50:48;;;;;;;9.77;6.35;;;;;;;29.97;nan;100324.03;4987139;28;20061;-74
2021/09/14 08:53:13;;;;;;;7.97;6.30;;;;;;;29.79;nan;100318.16;4991495;28;20062;-74
2021/09/14 08:55:38;;;;;;;7.95;5.82;;;;;;;30.06;nan;100331.31;4975246;28;20026;-75
2021/09/14 08:58:08;;;;;;;4.73;3.80;;;;;;;29.29;nan;100339.19;4992859;28;20034;-74
2021/09/14 09:00:33;;;;;;;7.63;5.90;;;;;;;28.67;nan;100332.38;4992557;28;20270;-74
2021/09/14 09:02:59;;;;;;;8.33;5.83;;;;;;;28.01;nan;100331.38;4992967;28;20096;-74
2021/09/14 09:05:31;;;;;;;8.65;6.38;;;;;;;26.94;nan;100321.09;4992634;28;20313;-74
2021/09/14 09:07:57;;;;;;;8.40;6.43;;;;;;;26.48;nan;100305.41;4992658;28;20048;-74
2021/09/14 09:10:22;;;;;;;9.13;6.80;;;;;;;26.36;nan;100285.81;4991683;28;20129;-74
2021/09/14 09:12:48;;;;;;;9.27;6.78;;;;;;;;;;4992368;28;20038;-74
2021/09/14 09:15:21;;;;;;;7.10;5.68;;;;;;;;;;4988030;28;20129;-76
2021/09/14 09:17:47;;;;;;;5.22;4.57;;;;;;;27.03;nan;100310.53;4974761;28;20030;-76
2021/09/14 09:20:12;;;;;;;6.75;5.32;;;;;;;27.70;nan;100278.91;4991645;28;20528;-77
2021/09/14 09:22:38;;;;;;;6.45;4.68;;;;;;;28.14;nan;100270.19;4974798;28;20026;-76
2021/09/14 09:25:04;;;;;;;10.32;6.30;;;;;;;28.10;nan;100318.88;4992144;28;20042;-77
2021/09/14 09:27:31;;;;;;;8.15;4.78;;;;;;;27.74;nan;100316.16;4990755;28;20034;-77
2021/09/14 09:29:58;;;;;;;6.38;5.10;;;;;;;27.47;nan;100312.84;4992219;28;20510;-74
2021/09/14 09:32:23;;;;;;;5.57;4.80;;;;;;;;;;4991309;28;20121;-74
2021/09/14 09:34:56;;;;;;;7.03;5.38;;;;;;;27.40;nan;100293.28;4977932;28;20146;-74
2021/09/14 09:37:22;;;;;;;7.93;5.47;;;;;;;27.64;nan;100309.88;4972709;28;20407;-74
2021/09/14 09:39:47;;;;;;;6.10;5.50;;;;;;;27.14;nan;100265.25;4972975;28;20038;-74
2021/09/14 09:42:14;;;;;;;10.45;6.00;;;;;;;27.23;nan;100298.97;4972110;28;20062;-74
2021/09/14 09:44:53;;;;;;;7.80;5.82;;;;;;;27.31;nan;100291.09;4972578;28;20089;-74
2021/09/14 09:47:18;;;;;;;7.50;5.20;;;;;;;27.17;nan;100346.13;4972722;28;20035;-74
2021/09/14 09:49:47;;;;;;;6.93;5.38;;;;;;;27.02;nan;100279.06;4992070;28;20022;-74
2021/09/14 09:52:13;;;;;;;10.93;4.97;;;;;;;27.16;nan;100266.59;4991371;28;20030;-74
2021/09/14 09:54:38;;;;;;;5.63;3.95;;;;;;;;;;4992317;28;20026;-74
2021/09/14 09:57:04;;;;;;;4.85;3.42;;;;;;;26.92;nan;100279.84;4974257;28;20045;-74
2021/09/14 09:59:29;;;;;;;6.55;5.40;;;;;;;27.30;nan;100266.94;4991732;28;20118;-74
2021/09/14 10:02:04;;;;;;;8.02;6.28;;;;;;;27.22;nan;100281.03;4992441;28;20510;-74
2021/09/14 10:04:38;;;;;;;6.65;4.88;;;;;;;26.81;nan;100270.84;4990922;28;20460;-74
2021/09/14 10:07:05;;;;;;;8.10;6.55;;;;;;;27.10;nan;100262.22;4974063;28;20439;-74
2021/09/14 10:09:31;;;;;;;6.00;4.38;;;;;;;26.29;nan;100279.81;4991149;28;20042;-74
2021/09/14 10:11:57;;;;;;;5.75;4.78;;;;;;;26.62;nan;100283.25;4990840;28;20062;-74
2021/09/14 10:14:23;;;;;;;5.93;4.35;;;;;;;26.62;nan;100267.78;4987574;28;20037;-74
2021/09/14 10:16:49;;;;;;;9.23;6.85;;;;;;;26.85;nan;100263.81;4991253;28;20034;-74
2021/09/14 10:19:25;;;;;;;7.88;6.45;;;;;;;26.17;nan;100287.31;4990850;28;20039;-74
2021/09/14 10:22:10;;;;;;;7.40;5.90;;;;;;;26.43;nan;100270.13;4991055;28;20523;-74
2021/09/14 10:24:37;;;;;;;9.45;8.27;;;;;;;26.78;nan;100292.28;4990366;28;20099;-74
2021/09/14 10:27:07;;;;;;;15.07;9.18;;;;;;;26.80;nan;100356.03;4991292;28;20039;-74
2021/09/14 10:29:33;;;;;;;12.02;8.15;;;;;;;26.61;nan;100278.91;4973394;28;20030;-74
2021/09/14 10:32:04;;;;;;;10.77;7.45;;;;;;;26.64;nan;100265.63;4990011;28;20073;-74
2021/09/14 10:34:29;;;;;;;10.57;6.45;;;;;;;26.17;nan;100282.72;4990734;28;20026;-74
2021/09/14 10:37:00;;;;;;;8.32;6.68;;;;;;;;;;4990428;28;20042;-74
2021/09/14 10:39:25;;;;;;;12.95;7.97;;;;;;;;;;4990763;28;20042;-74
2021/09/14 10:41:52;;;;;;;11.23;6.93;;;;;;;26.32;nan;100268.44;4989996;28;20458;-74
2021/09/14 10:44:48;;;;;;;9.10;7.20;;;;;;;26.25;nan;100273.28;4990592;28;20274;-74
2021/09/14 10:47:17;;;;;;;10.05;6.30;;;;;;;26.22;nan;100268.38;4988616;28;20041;-74
2021/09/14 10:49:53;;;;;;;11.15;6.88;;;;;;;26.11;nan;100272.09;4984237;28;20487;-74
2021/09/14 10:52:31;;;;;;;8.15;6.43;;;;;;;26.32;nan;100257.59;4990911;28;20085;-76
2021/09/14 10:54:57;;;;;;;9.80;7.30;;;;;;;26.53;nan;100260.38;4986737;28;20471;-76
2021/09/14 10:57:33;;;;;;;8.82;6.05;;;;;;;26.86;nan;100251.88;4956328;28;20054;-76
2021/09/14 10:59:59;;;;;;;6.30;4.20;;;;;;;26.89;nan;100253.25;4973471;28;20035;-76
2021/09/14 11:02:25;;;;;;;5.70;4.00;;;;;;;26.76;nan;100261.88;4973675;28;20050;-76
2021/09/14 11:04:50;;;;;;;7.00;4.47;;;;;;;26.62;nan;100256.13;4980448;28;20030;-77
2021/09/14 11:07:21;;;;;;;4.95;3.80;;;;;;;26.48;nan;100277.44;4991136;28;20038;-77
2021/09/14 11:09:58;;;;;;;5.85;4.40;;;;;;;26.35;nan;100240.78;4987391;28;20030;-76
2021/09/14 11:12:26;;;;;;;4.95;3.97;;;;;;;26.27;nan;100261.09;4993421;28;20042;-76
2021/09/14 11:14:52;;;;;;;7.32;4.85;;;;;;;26.49;nan;100247.38;4977846;28;20034;-76
2021/09/14 11:17:32;;;;;;;5.93;4.40;;;;;;;26.60;nan;100256.41;4992409;28;20065;-76
2021/09/14 11:20:11;;;;;;;6.47;4.72;;;;;;;;;;4992496;28;20528;-76
2021/09/14 11:22:39;;;;;;;5.22;3.92;;;;;;;26.20;nan;100265.13;4988055;28;20158;-77
2021/09/14 11:25:10;;;;;;;5.60;3.80;;;;;;;26.27;nan;100261.09;4973265;28;20051;-76
2021/09/14 11:27:35;;;;;;;4.05;3.58;;;;;;;26.23;nan;100270.00;4972843;28;20504;-76
2021/09/14 11:30:00;;;;;;;4.88;3.90;;;;;;;;;;4970820;28;20125;-76
2021/09/14 11:32:27;;;;;;;6.33;4.17;;;;;;;26.53;nan;100273.94;4990962;28;20058;-75
2021/09/14 11:34:53;;;;;;;5.03;3.80;;;;;;;26.63;nan;100274.84;4985997;28;20403;-76
2021/09/14 11:37:29;;;;;;;5.57;3.58;;;;;;;26.19;nan;100279.72;4972077;28;20031;-76
2021/09/14 11:39:55;;;;;;;6.00;3.95;;;;;;;;;;4970986;28;20034;-76
2021/09/14 11:42:20;;;;;;;5.93;3.67;;;;;;;;;;4981309;28;20122;-76
2021/09/14 11:44:46;;;;;;;4.85;3.72;;;;;;;26.55;nan;100260.97;4990965;28;20447;-76
2021/09/14 11:47:11;;;;;;;5.72;4.03;;;;;;;26.68;nan;100265.94;4990271;28;20050;-76
2021/09/14 11:49:36;;;;;;;5.03;3.55;;;;;;;;;;4977880;28;20392;-76
2021/09/14 11:52:04;;;;;;;4.30;3.30;;;;;;;26.73;nan;100216.31;4972601;28;20090;-76
2021/09/14 11:54:36;;;;;;;5.03;3.50;;;;;;;26.57;nan;100227.09;4986396;28;20030;-76
2021/09/14 11:57:03;;;;;;;5.57;3.88;;;;;;;26.63;nan;100252.34;4993837;28;20034;-77
2021/09/14 11:59:34;;;;;;;5.70;3.85;;;;;;;;;;4993874;28;20030;-76
2021/09/14 12:02:00;;;;;;;4.32;3.90;;;;;;;26.76;nan;100248.31;4994495;28;20034;-76
2021/09/14 12:04:25;;;;;;;4.65;3.58;;;;;;;26.77;nan;100237.22;4992453;28;20049;-76
2021/09/14 12:06:51;;;;;;;4.90;3.40;;;;;;;;;;4994345;28;20038;-76
2021/09/14 12:09:18;;;;;;;7.50;3.78;;;;;;;26.72;nan;100244.50;4993729;28;20117;-76
2021/09/14 12:11:44;;;;;;;5.10;3.80;;;;;;;26.51;nan;100244.41;4993965;28;20109;-77
2021/09/14 12:14:11;;;;;;;4.40;3.10;;;;;;;26.38;nan;100299.91;4994733;28;20164;-76
2021/09/14 12:16:41;;;;;;;4.70;3.72;;;;;;;26.55;nan;100233.84;4993974;28;20034;-76
2021/09/14 12:19:07;;;;;;;5.22;3.40;;;;;;;;;;4993260;28;20112;-76
2021/09/14 12:21:33;;;;;;;4.43;3.55;;;;;;;26.55;nan;100248.22;4993682;28;20821;-76
2021/09/14 12:23:59;;;;;;;4.57;3.67;;;;;;;;;;4993750;28;20080;-76
2021/09/14 12:26:39;;;;;;;6.03;3.15;;;;;;;26.93;nan;100235.34;4993183;28;20041;-76
2021/09/14 12:29:06;;;;;;;4.53;3.72;;;;;;;26.89;nan;100228.84;4993030;28;20039;-76
2021/09/14 12:31:32;;;;;;;4.53;3.50;;;;;;;27.17;nan;100278.28;4993522;28;20046;-76
2021/09/14 12:33:58;;;;;;;5.30;3.40;;;;;;;27.39;nan;100272.63;4987132;28;20039;-76
2021/09/14 12:36:24;;;;;;;5.82;3.58;;;;;;;27.26;nan;100234.06;4984386;28;20038;-76
2021/09/14 12:38:50;;;;;;;6.15;4.03;;;;;;;27.04;nan;100230.75;4993524;28;20026;-76
2021/09/14 12:41:15;;;;;;;7.28;3.70;;;;;;;;;;4993313;28;20034;-76
2021/09/14 12:43:41;;;;;;;4.63;4.00;;;;;;;27.01;nan;100232.13;4993343;28;20380;-76
2021/09/14 12:46:07;;;;;;;4.70;3.67;;;;;;;26.99;nan;100217.19;4992523;28;20410;-76
2021/09/14 12:48:32;;;;;;;4.55;3.80;;;;;;;26.81;nan;100259.19;4975215;28;20030;-76
2021/09/14 12:50:57;;;;;;;4.68;3.53;;;;;;;26.95;nan;100205.22;4993293;28;20039;-76
2021/09/14 12:53:23;;;;;;;7.68;4.78;;;;;;;;;;4992961;28;20038;-76
2021/09/14 12:55:49;;;;;;;4.47;3.87;;;;;;;27.19;nan;100238.09;4975737;28;20031;-76
2021/09/14 12:58:14;;;;;;;5.88;4.43;;;;;;;27.15;nan;100226.16;4971366;28;20030;-76
2021/09/14 13:00:39;;;;;;;5.72;4.28;;;;;;;27.24;nan;100216.41;4992287;28;20388;-76
2021/09/14 13:03:05;;;;;;;4.18;3.70;;;;;;;27.26;nan;100198.78;4992023;28;20069;-76
2021/09/14 13:05:32;;;;;;;8.02;4.53;;;;;;;27.03;nan;100229.09;4992812;28;20031;-77
2021/09/14 13:07:58;;;;;;;6.90;5.15;;;;;;;27.19;nan;100219.09;4988476;28;20478;-76
2021/09/14 13:10:23;;;;;;;6.43;4.50;;;;;;;;;;4974772;28;20035;-76
2021/09/14 13:16:09;;;;;;;5.93;4.40;;;;;;;27.04;nan;100211.75;4992004;28;20041;-76
2021/09/14 13:18:18;;;;;;;6.25;4.25;;;;;;;27.06;nan;100223.16;4990200;28;20041;-76
2021/09/14 13:20:43;;;;;;;4.60;3.72;;;;;;;27.25;nan;100209.91;4994107;28;20042;-76
2021/09/14 13:23:09;;;;;;;7.07;4.47;;;;;;;;;;4995300;28;20125;-76
2021/09/14 13:25:35;;;;;;;5.70;4.37;;;;;;;27.35;nan;100209.91;4994965;28;20282;-76
2021/09/14 13:28:00;;;;;;;5.75;4.18;;;;;;;27.21;nan;100235.97;4995023;28;20041;-76
2021/09/14 13:30:26;;;;;;;6.63;4.35;;;;;;;27.53;nan;100205.84;4977574;28;20030;-77
2021/09/14 13:32:51;;;;;;;7.80;5.03;;;;;;;27.79;nan;100159.63;4990234;28;20050;-76
2021/09/14 13:35:16;;;;;;;4.57;3.80;;;;;;;27.64;nan;100193.88;4992794;28;20030;-76
2021/09/14 13:37:42;;;;;;;5.63;4.22;;;;;;;;;;4988098;28;20081;-76
2021/09/14 13:40:08;;;;;;;6.07;3.97;;;;;;;27.49;nan;100172.97;4968246;28;20089;-72
2021/09/14 13:42:33;;;;;;;7.15;4.28;;;;;;;27.44;nan;100207.50;4993439;28;20274;-76
2021/09/14 13:47:34;;;;;;;5.18;3.45;;;;;;;27.22;nan;100189.56;4990231;28;20077;-72
2021/09/14 13:50:04;;;;;;;6.10;3.30;;;;;;;27.37;nan;100193.38;4959313;28;20038;-72
2021/09/14 13:52:29;;;;;;;4.45;3.63;;;;;;;27.30;nan;100164.56;4989341;28;20058;-76
2021/09/14 13:54:54;;;;;;;4.10;3.33;;;;;;;27.05;nan;100195.22;4989836;28;20551;-77
2021/09/14 13:57:20;;;;;;;4.55;3.40;;;;;;;27.15;nan;100150.16;4989768;28;20507;-77
2021/09/14 13:59:45;;;;;;;5.80;3.67;;;;;;;27.31;nan;100198.78;4989983;28;20034;-76
2021/09/14 14:02:10;;;;;;;6.67;3.87;;;;;;;27.06;nan;100190.59;4965658;28;20105;-77
2021/09/14 14:04:35;;;;;;;5.38;3.83;;;;;;;27.05;nan;100205.25;4986741;28;20365;-77
2021/09/14 14:07:01;;;;;;;5.37;4.10;;;;;;;;;;4990115;28;20122;-76
2021/09/14 14:09:26;;;;;;;5.30;3.90;;;;;;;;;;4989451;28;20273;-76
2021/09/14 14:11:51;;;;;;;7.27;3.97;;;;;;;;;;4989804;28;20038;-76
2021/09/14 14:14:16;;;;;;;6.27;4.23;;;;;;;27.27;nan;100200.41;4985436;28;20344;-77
2021/09/14 14:16:42;;;;;;;6.22;3.50;;;;;;;27.16;nan;100193.31;4988275;28;20084;-77
2021/09/14 14:19:07;;;;;;;9.75;4.35;;;;;;;27.18;nan;100231.88;4988688;28;20026;-77
2021/09/14 14:21:33;;;;;;;7.45;3.80;;;;;;;27.14;nan;100225.34;4988336;28;20286;-76
2021/09/14 14:23:58;;;;;;;6.93;3.50;;;;;;;;;;4971494;28;20050;-77
2021/09/14 14:26:23;;;;;;;4.93;3.97;;;;;;;27.08;nan;100199.28;4988547;28;20030;-77
2021/09/14 14:28:49;;;;;;;4.93;3.35;;;;;;;27.21;nan;100197.97;4971466;28;20030;-77
2021/09/14 14:31:15;;;;;;;5.63;3.90;;;;;;;27.41;nan;100180.84;4989446;28;20050;-76
2021/09/14 14:33:40;;;;;;;5.20;3.83;;;;;;;27.55;nan;100192.78;4971812;28;20545;-76
2021/09/14 14:36:07;;;;;;;4.45;3.40;;;;;;;27.49;nan;100196.63;4988970;28;20392;-75
2021/09/14 14:38:37;;;;;;;6.38;4.25;;;;;;;27.61;nan;100196.34;4987474;28;20038;-76
2021/09/14 14:41:03;;;;;;;4.85;3.58;;;;;;;27.57;nan;100189.81;4989156;28;20050;-77
2021/09/14 14:43:29;;;;;;;5.40;3.72;;;;;;;27.35;nan;100184.69;4989517;28;20042;-77
2021/09/14 14:45:54;;;;;;;4.85;3.30;;;;;;;;;;4989072;28;20039;-77